createdAt,value
2023-05-23T00:00:01.913Z,5807.00
2023-05-23T00:01:01.930Z,5735.00
2023-05-23T00:02:02.023Z,5620.00
2023-05-23T00:03:02.098Z,5719.00
2023-05-23T00:04:02.234Z,5663.00
2023-05-23T00:05:02.085Z,5611.00
2023-05-23T00:06:02.070Z,5562.00
2023-05-23T00:07:02.069Z,5721.00
2023-05-23T00:08:02.164Z,5859.00
2023-05-23T00:09:02.082Z,5819.00
2023-05-23T00:10:02.121Z,5637.00
2023-05-23T00:11:02.141Z,5729.00
2023-05-23T00:12:02.107Z,5825.00
2023-05-23T00:13:02.155Z,5749.00
2023-05-23T00:14:02.206Z,5659.00
2023-05-23T00:15:02.177Z,5653.00
2023-05-23T00:16:02.245Z,5672.00
2023-05-23T00:17:02.257Z,5700.00
2023-05-23T00:18:02.361Z,5700.00
2023-05-23T00:19:02.373Z,5740.00
2023-05-23T00:20:02.323Z,5743.00
2023-05-23T00:21:02.427Z,5959.00
2023-05-23T00:22:02.379Z,5891.00
2023-05-23T00:23:02.391Z,5830.00
2023-05-23T00:24:02.478Z,5785.00
2023-05-23T00:25:02.440Z,5905.00
2023-05-23T00:26:02.465Z,5866.00
2023-05-23T00:27:02.518Z,5955.00
2023-05-23T00:28:02.600Z,5882.00
2023-05-23T00:29:02.630Z,5989.00
2023-05-23T00:30:02.654Z,6024.00
2023-05-23T00:31:02.724Z,6053.00
2023-05-23T00:32:02.734Z,6055.00
2023-05-23T00:33:02.818Z,6076.00
2023-05-23T00:34:02.824Z,5925.00
2023-05-23T00:35:02.829Z,6036.00
2023-05-23T00:36:02.855Z,5929.00
2023-05-23T00:37:02.893Z,5845.00
2023-05-23T00:38:02.901Z,5774.00
2023-05-23T00:39:02.957Z,5855.00
2023-05-23T00:40:03.040Z,5847.00
2023-05-23T00:41:03.028Z,5779.00
2023-05-23T00:42:03.050Z,5795.00
2023-05-23T00:43:03.106Z,5811.00
2023-05-23T00:44:03.128Z,5714.00
2023-05-23T00:45:03.158Z,5751.00
2023-05-23T00:46:03.175Z,5788.00
2023-05-23T00:47:03.225Z,5787.00
2023-05-23T00:48:03.278Z,5724.00
2023-05-23T00:49:03.299Z,5812.00
2023-05-23T00:50:03.283Z,5944.00
2023-05-23T00:51:03.350Z,5955.00
2023-05-23T00:52:03.380Z,5947.00
2023-05-23T00:53:03.391Z,5867.00
2023-05-23T00:54:03.473Z,5848.00
2023-05-23T00:55:03.528Z,5969.00
2023-05-23T00:56:03.613Z,6052.00
2023-05-23T00:57:03.598Z,5923.00
2023-05-23T00:58:03.635Z,5810.00
2023-05-23T00:59:03.662Z,5839.00
2023-05-23T01:00:03.723Z,5840.00
2023-05-23T01:01:03.757Z,5622.00
2023-05-23T01:02:03.797Z,5488.00
2023-05-23T01:03:03.968Z,5485.00
2023-05-23T01:04:03.925Z,5602.00
2023-05-23T01:05:03.821Z,5699.00
2023-05-23T01:06:03.872Z,5604.00
2023-05-23T01:07:03.901Z,5577.00
2023-05-23T01:08:03.920Z,5295.00
2023-05-23T01:10:23.500Z,600.00
2023-05-23T01:11:23.542Z,600.00
2023-05-23T01:12:23.565Z,600.00
2023-05-23T01:13:23.561Z,600.00
2023-05-23T01:14:23.549Z,600.00
2023-05-23T01:15:23.518Z,600.00
2023-05-23T01:16:23.519Z,610.00
2023-05-23T01:17:23.542Z,605.00
2023-05-23T01:18:23.518Z,668.00
2023-05-23T01:19:23.601Z,637.00
2023-05-23T01:20:23.481Z,703.00
2023-05-23T01:21:23.460Z,737.00
2023-05-23T01:22:23.494Z,616.00
2023-05-23T01:23:23.435Z,634.00
2023-05-23T01:24:23.466Z,642.00
2023-05-23T01:25:23.417Z,602.00
2023-05-23T01:26:23.451Z,704.00
2023-05-23T01:27:23.497Z,808.00
2023-05-23T01:28:23.434Z,783.00
2023-05-23T01:29:23.447Z,741.00
2023-05-23T01:30:23.414Z,766.00
2023-05-23T01:31:23.459Z,758.00
2023-05-23T01:32:23.392Z,775.00
2023-05-23T01:33:23.400Z,769.00
2023-05-23T01:34:23.407Z,814.00
2023-05-23T01:35:23.348Z,872.00
2023-05-23T01:36:23.350Z,887.00
2023-05-23T01:37:23.329Z,850.00
2023-05-23T01:38:23.333Z,884.00
2023-05-23T01:39:23.340Z,877.00
2023-05-23T01:40:23.346Z,968.00
2023-05-23T01:41:23.324Z,1030.00
2023-05-23T01:42:23.321Z,1040.00
2023-05-23T01:43:23.404Z,1255.00
2023-05-23T01:44:23.277Z,1196.00
2023-05-23T01:45:23.300Z,1174.00
2023-05-23T01:46:23.481Z,1086.00
2023-05-23T01:47:23.307Z,1077.00
2023-05-23T01:48:23.237Z,1136.00
2023-05-23T01:49:23.278Z,1205.00
2023-05-23T01:50:23.261Z,1367.00
2023-05-23T01:51:23.245Z,1208.00
2023-05-23T01:52:23.247Z,1218.00
2023-05-23T01:53:23.239Z,1308.00
2023-05-23T01:54:23.237Z,1379.00
2023-05-23T01:55:23.207Z,1351.00
2023-05-23T01:56:23.216Z,1195.00
2023-05-23T01:57:23.224Z,1266.00
2023-05-23T01:58:23.210Z,1286.00
2023-05-23T01:59:23.258Z,1308.00
2023-05-23T02:00:23.139Z,1334.00
2023-05-23T02:01:23.214Z,1413.00
2023-05-23T02:02:23.244Z,1422.00
2023-05-23T02:03:23.284Z,1398.00
2023-05-23T02:04:23.167Z,1366.00
2023-05-23T02:05:23.159Z,1539.00
2023-05-23T02:06:23.130Z,1539.00
2023-05-23T02:07:23.159Z,1546.00
2023-05-23T02:08:23.117Z,1589.00
2023-05-23T02:09:23.138Z,1693.00
2023-05-23T02:10:23.104Z,1698.00
2023-05-23T02:11:23.110Z,1759.00
2023-05-23T02:12:23.075Z,1820.00
2023-05-23T02:13:23.099Z,1839.00
2023-05-23T02:14:23.075Z,1782.00
2023-05-23T02:15:23.133Z,1760.00
2023-05-23T02:16:23.106Z,1700.00
2023-05-23T02:17:23.184Z,1712.00
2023-05-23T02:18:23.075Z,1678.00
2023-05-23T02:19:23.122Z,1544.00
2023-05-23T02:20:23.120Z,1616.00
2023-05-23T02:21:23.124Z,1690.00
2023-05-23T02:22:23.162Z,1677.00
2023-05-23T02:23:23.189Z,1601.00
2023-05-23T02:24:23.231Z,1716.00
2023-05-23T02:25:23.244Z,1857.00
2023-05-23T02:26:23.306Z,1868.00
2023-05-23T02:27:23.281Z,1845.00
2023-05-23T02:28:23.342Z,1910.00
2023-05-23T02:29:23.321Z,1962.00
2023-05-23T02:30:23.363Z,1919.00
2023-05-23T02:31:23.494Z,1933.00
2023-05-23T02:32:23.410Z,1987.00
2023-05-23T02:33:23.509Z,1992.00
2023-05-23T02:34:23.528Z,1935.00
2023-05-23T02:35:23.525Z,1997.00
2023-05-23T02:36:23.530Z,2039.00
2023-05-23T02:37:23.590Z,2062.00
2023-05-23T02:38:23.575Z,1925.00
2023-05-23T02:39:23.614Z,1951.00
2023-05-23T02:40:23.582Z,2081.00
2023-05-23T02:41:23.638Z,2160.00
2023-05-23T02:42:23.662Z,2089.00
2023-05-23T02:43:23.717Z,2068.00
2023-05-23T02:44:23.753Z,2046.00
2023-05-23T02:45:23.764Z,2013.00
2023-05-23T02:46:23.789Z,2019.00
2023-05-23T02:47:23.822Z,1917.00
2023-05-23T02:48:23.774Z,1867.00
2023-05-23T02:49:23.850Z,1853.00
2023-05-23T02:50:23.798Z,1823.00
2023-05-23T02:51:23.873Z,1884.00
2023-05-23T02:52:23.914Z,1860.00
2023-05-23T02:53:23.956Z,1995.00
2023-05-23T02:54:24.010Z,1995.00
2023-05-23T02:55:24.095Z,1879.00
2023-05-23T02:56:24.117Z,1819.00
2023-05-23T02:57:24.187Z,1850.00
2023-05-23T02:58:24.191Z,1795.00
2023-05-23T02:59:24.233Z,1743.00
2023-05-23T03:00:24.248Z,1685.00
2023-05-23T03:01:24.338Z,1630.00
2023-05-23T03:02:24.351Z,1647.00
2023-05-23T03:03:24.520Z,1637.00
2023-05-23T03:04:24.390Z,1622.00
2023-05-23T03:05:24.439Z,1623.00
2023-05-23T03:06:26.052Z,1578.00
2023-05-23T03:07:28.708Z,1564.00
2023-05-23T03:08:24.488Z,1565.00
2023-05-23T03:09:24.472Z,1564.00
2023-05-23T03:10:24.466Z,1573.00
2023-05-23T03:11:24.451Z,1589.00
2023-05-23T03:12:24.480Z,1612.00
2023-05-23T03:13:24.445Z,1636.00
2023-05-23T03:14:24.461Z,1635.00
2023-05-23T03:15:24.445Z,1635.00
2023-05-23T03:16:24.480Z,1670.00
2023-05-23T03:17:24.455Z,1696.00
2023-05-23T03:18:24.402Z,1721.00
2023-05-23T03:19:24.579Z,1679.00
2023-05-23T03:20:24.421Z,1686.00
2023-05-23T03:21:24.418Z,1699.00
2023-05-23T03:22:24.383Z,1725.00
2023-05-23T03:23:24.403Z,1725.00
2023-05-23T03:24:24.404Z,1747.00
2023-05-23T03:25:24.377Z,1767.00
2023-05-23T03:26:24.359Z,1793.00
2023-05-23T03:27:24.366Z,1788.00
2023-05-23T03:28:24.377Z,1718.00
2023-05-23T03:29:24.389Z,1633.00
2023-05-23T03:30:24.333Z,1607.00
2023-05-23T03:31:24.377Z,1601.00
2023-05-23T03:32:24.454Z,1608.00
2023-05-23T03:33:24.411Z,1612.00
2023-05-23T03:34:24.493Z,1626.00
2023-05-23T03:35:24.566Z,1649.00
2023-05-23T03:36:24.530Z,1834.00
2023-05-23T03:37:24.592Z,1854.00
2023-05-23T03:38:24.647Z,1809.00
2023-05-23T03:39:24.698Z,1733.00
2023-05-23T03:40:24.761Z,1685.00
2023-05-23T03:41:24.759Z,1833.00
2023-05-23T03:42:24.835Z,1930.00
2023-05-23T03:43:24.838Z,1894.00
2023-05-23T03:44:24.847Z,1759.00
2023-05-23T03:45:24.840Z,1734.00
2023-05-23T03:46:24.871Z,1753.00
2023-05-23T03:47:24.905Z,1887.00
2023-05-23T03:48:24.919Z,1887.00
2023-05-23T03:49:24.922Z,1784.00
2023-05-23T03:50:24.985Z,1805.00
2023-05-23T03:51:25.064Z,1820.00
2023-05-23T03:52:24.993Z,1847.00
2023-05-23T03:53:25.063Z,1793.00
2023-05-23T03:54:25.110Z,1851.00
2023-05-23T03:55:25.078Z,1715.00
2023-05-23T03:56:25.129Z,1735.00
2023-05-23T03:57:25.121Z,1780.00
2023-05-23T03:58:25.094Z,1757.00
2023-05-23T03:59:25.142Z,1775.00
2023-05-23T04:00:25.151Z,1782.00
2023-05-23T04:01:25.160Z,1790.00
2023-05-23T04:02:25.240Z,1713.00
2023-05-23T04:03:25.285Z,1668.00
2023-05-23T04:04:25.339Z,1723.00
2023-05-23T04:05:25.257Z,1805.00
2023-05-23T04:06:25.302Z,1873.00
2023-05-23T04:07:26.249Z,1917.00
2023-05-23T04:08:25.362Z,1857.00
2023-05-23T04:09:25.366Z,1860.00
2023-05-23T04:10:25.462Z,1959.00
2023-05-23T04:11:25.420Z,1981.00
2023-05-23T04:12:25.416Z,1957.00
2023-05-23T04:13:25.445Z,1921.00
2023-05-23T04:14:25.483Z,1911.00
2023-05-23T04:15:25.524Z,1916.00
2023-05-23T04:16:25.616Z,1929.00
2023-05-23T04:17:25.713Z,1942.00
2023-05-23T04:18:25.630Z,1942.00
2023-05-23T04:19:25.752Z,1957.00
2023-05-23T04:20:25.728Z,1947.00
2023-05-23T04:21:25.765Z,1963.00
2023-05-23T04:22:25.822Z,1937.00
2023-05-23T04:23:25.870Z,1890.00
2023-05-23T04:24:25.825Z,1814.00
2023-05-23T04:25:25.831Z,1772.00
2023-05-23T04:26:25.846Z,1775.00
2023-05-23T04:27:25.901Z,1837.00
2023-05-23T04:28:25.891Z,1782.00
2023-05-23T04:29:25.988Z,1708.00
2023-05-23T04:30:26.031Z,1738.00
2023-05-23T04:31:26.094Z,1762.00
2023-05-23T04:32:26.056Z,1783.00
2023-05-23T04:33:26.105Z,1757.00
2023-05-23T04:34:26.168Z,1759.00
2023-05-23T04:35:26.214Z,1767.00
2023-05-23T04:36:26.217Z,1703.00
2023-05-23T04:37:26.560Z,1673.00
2023-05-23T04:38:26.279Z,1703.00
2023-05-23T04:39:26.425Z,1746.00
2023-05-23T04:40:26.377Z,1813.00
2023-05-23T04:41:26.487Z,1842.00
2023-05-23T04:42:26.469Z,1834.00
2023-05-23T04:43:26.551Z,1847.00
2023-05-23T04:44:26.593Z,1830.00
2023-05-23T04:45:26.606Z,1801.00
2023-05-23T04:46:26.761Z,1845.00
2023-05-23T04:47:26.616Z,1880.00
2023-05-23T04:48:26.610Z,1869.00
2023-05-23T04:49:26.713Z,1898.00
2023-05-23T04:50:26.728Z,1947.00
2023-05-23T04:51:26.762Z,1934.00
2023-05-23T04:52:26.769Z,1933.00
2023-05-23T04:53:26.792Z,1982.00
2023-05-23T04:54:26.848Z,1992.00
2023-05-23T04:55:26.901Z,1963.00
2023-05-23T04:56:26.870Z,1994.00
2023-05-23T04:57:26.899Z,2015.00
2023-05-23T04:58:26.943Z,2051.00
2023-05-23T04:59:26.930Z,2043.00
2023-05-23T05:00:26.966Z,2023.00
2023-05-23T05:01:27.483Z,2034.00
2023-05-23T05:02:27.124Z,2046.00
2023-05-23T05:03:27.137Z,2040.00
2023-05-23T05:04:27.312Z,2051.00
2023-05-23T05:05:27.227Z,2052.00
2023-05-23T05:06:27.249Z,2043.00
2023-05-23T05:07:27.328Z,2036.00
2023-05-23T05:08:27.367Z,2016.00
2023-05-23T05:09:27.407Z,1983.00
2023-05-23T05:10:27.418Z,1980.00
2023-05-23T05:11:27.496Z,1963.00
2023-05-23T05:12:27.490Z,1921.00
2023-05-23T05:13:27.560Z,1947.00
2023-05-23T05:14:27.605Z,1920.00
2023-05-23T05:15:27.655Z,1888.00
2023-05-23T05:16:27.696Z,1852.00
2023-05-23T05:17:27.827Z,1862.00
2023-05-23T05:18:27.756Z,1771.00
2023-05-23T05:19:27.825Z,1719.00
2023-05-23T05:20:27.814Z,1632.00
2023-05-23T05:21:27.858Z,1655.00
2023-05-23T05:22:27.893Z,1659.00
2023-05-23T05:23:27.951Z,1677.00
2023-05-23T05:24:28.027Z,1701.00
2023-05-23T05:25:28.002Z,1799.00
2023-05-23T05:26:28.015Z,1838.00
2023-05-23T05:27:28.169Z,1782.00
2023-05-23T05:28:28.063Z,1661.00
2023-05-23T05:29:28.112Z,1657.00
2023-05-23T05:30:28.109Z,1693.00
2023-05-23T05:31:28.229Z,1801.00
2023-05-23T05:32:28.248Z,1872.00
2023-05-23T05:33:28.306Z,1856.00
2023-05-23T05:34:28.331Z,1751.00
2023-05-23T05:35:28.361Z,1732.00
2023-05-23T05:36:28.373Z,1673.00
2023-05-23T05:37:28.480Z,1742.00
2023-05-23T05:38:28.477Z,1787.00
2023-05-23T05:39:28.604Z,1798.00
2023-05-23T05:40:28.572Z,1813.00
2023-05-23T05:41:28.609Z,1743.00
2023-05-23T05:42:28.613Z,1750.00
2023-05-23T05:43:28.722Z,1781.00
2023-05-23T05:44:28.685Z,1802.00
2023-05-23T05:45:28.740Z,1785.00
2023-05-23T05:46:28.802Z,1711.00
2023-05-23T05:47:28.805Z,1694.00
2023-05-23T05:48:28.846Z,1738.00
2023-05-23T05:49:28.864Z,1705.00
2023-05-23T05:50:28.841Z,1792.00
2023-05-23T05:51:28.897Z,1815.00
2023-05-23T05:52:28.915Z,1818.00
2023-05-23T05:53:28.961Z,1849.00
2023-05-23T05:54:29.003Z,1842.00
2023-05-23T05:55:29.080Z,1865.00
2023-05-23T05:56:29.124Z,1877.00
2023-05-23T05:57:29.077Z,1837.00
2023-05-23T05:58:29.106Z,1822.00
2023-05-23T05:59:30.573Z,1777.00
2023-05-23T06:00:29.111Z,1779.00
2023-05-23T06:01:29.134Z,1774.00
2023-05-23T06:02:29.127Z,1780.00
2023-05-23T06:03:29.186Z,1785.00
2023-05-23T06:04:29.133Z,1747.00
2023-05-23T06:05:29.050Z,1705.00
2023-05-23T06:06:29.047Z,1717.00
2023-05-23T06:07:29.060Z,1738.00
2023-05-23T06:08:29.069Z,1723.00
2023-05-23T06:09:29.056Z,1631.00
2023-05-23T06:10:29.034Z,1627.00
2023-05-23T06:11:29.069Z,1672.00
2023-05-23T06:12:29.023Z,1682.00
2023-05-23T06:13:29.090Z,1766.00
2023-05-23T06:14:29.046Z,1755.00
2023-05-23T06:15:29.061Z,1756.00
2023-05-23T06:16:29.018Z,1761.00
2023-05-23T06:17:29.029Z,1764.00
2023-05-23T06:18:29.058Z,1794.00
2023-05-23T06:19:29.055Z,1808.00
2023-05-23T06:20:29.093Z,1795.00
2023-05-23T06:21:28.961Z,1796.00
2023-05-23T06:22:28.972Z,1817.00
2023-05-23T06:23:28.935Z,1794.00
2023-05-23T06:24:28.961Z,1805.00
2023-05-23T06:25:28.918Z,1779.00
2023-05-23T06:26:28.909Z,1765.00
2023-05-23T06:27:28.949Z,1773.00
2023-05-23T06:28:28.948Z,1750.00
2023-05-23T06:29:28.956Z,1713.00
2023-05-23T06:30:28.915Z,1703.00
2023-05-23T06:31:28.998Z,1707.00
2023-05-23T06:32:28.970Z,1723.00
2023-05-23T06:33:28.891Z,1740.00
2023-05-23T06:34:28.889Z,1762.00
2023-05-23T06:35:28.852Z,1730.00
2023-05-23T06:36:28.873Z,1765.00
2023-05-23T06:37:28.885Z,1717.00
2023-05-23T06:38:28.842Z,1766.00
2023-05-23T06:39:28.853Z,1813.00
2023-05-23T06:40:28.909Z,1864.00
2023-05-23T06:41:28.824Z,1841.00
2023-05-23T06:42:28.829Z,1797.00
2023-05-23T06:43:28.808Z,1802.00
2023-05-23T06:44:28.802Z,1808.00
2023-05-23T06:45:28.804Z,1782.00
2023-05-23T06:46:28.840Z,1830.00
2023-05-23T06:47:28.939Z,1831.00
2023-05-23T06:48:28.858Z,1807.00
2023-05-23T06:49:28.966Z,1813.00
2023-05-23T06:50:28.933Z,1751.00
2023-05-23T06:51:29.119Z,1741.00
2023-05-23T06:52:28.922Z,1682.00
2023-05-23T06:53:28.987Z,1669.00
2023-05-23T06:54:29.043Z,1687.00
2023-05-23T06:55:29.063Z,1598.00
2023-05-23T06:56:29.155Z,1564.00
2023-05-23T06:57:29.134Z,1621.00
2023-05-23T06:58:29.125Z,1653.00
2023-05-23T06:59:29.193Z,1683.00
2023-05-23T07:00:29.209Z,1689.00
2023-05-23T07:01:29.225Z,1693.00
2023-05-23T07:02:29.274Z,1635.00
2023-05-23T07:03:29.345Z,1627.00
2023-05-23T07:04:29.370Z,1636.00
2023-05-23T07:05:29.440Z,1703.00
2023-05-23T07:06:29.494Z,1728.00
2023-05-23T07:07:29.480Z,1748.00
2023-05-23T07:08:29.534Z,1750.00
2023-05-23T07:09:29.582Z,1737.00
2023-05-23T07:10:29.584Z,1762.00
2023-05-23T07:11:29.629Z,1723.00
2023-05-23T07:12:29.627Z,1744.00
2023-05-23T07:13:29.673Z,1719.00
2023-05-23T07:14:29.710Z,1712.00
2023-05-23T07:15:31.680Z,1702.00
2023-05-23T07:16:29.867Z,1706.00
2023-05-23T07:17:29.786Z,1698.00
2023-05-23T07:18:30.063Z,1676.00
2023-05-23T07:19:29.947Z,1623.00
2023-05-23T07:20:29.826Z,1652.00
2023-05-23T07:21:29.855Z,1643.00
2023-05-23T07:22:29.976Z,1633.00
2023-05-23T07:23:29.862Z,1653.00
2023-05-23T07:24:29.927Z,1611.00
2023-05-23T07:25:29.915Z,1612.00
2023-05-23T07:26:29.970Z,1604.00
2023-05-23T07:27:29.970Z,1576.00
2023-05-23T07:28:30.094Z,1549.00
2023-05-23T07:29:30.007Z,1550.00
2023-05-23T07:30:32.035Z,1541.00
2023-05-23T07:31:30.012Z,1537.00
2023-05-23T07:32:30.076Z,1556.00
2023-05-23T07:33:30.039Z,1508.00
2023-05-23T07:34:30.035Z,1478.00
2023-05-23T07:35:30.006Z,1490.00
2023-05-23T07:36:30.031Z,1471.00
2023-05-23T07:37:30.069Z,1455.00
2023-05-23T07:38:30.023Z,1378.00
2023-05-23T07:39:29.970Z,1389.00
2023-05-23T07:40:30.271Z,1381.00
2023-05-23T07:41:29.981Z,1382.00
2023-05-23T07:42:29.942Z,1368.00
2023-05-23T07:43:29.949Z,1334.00
2023-05-23T07:44:30.003Z,1303.00
2023-05-23T07:45:30.046Z,1362.00
2023-05-23T07:46:29.928Z,1412.00
2023-05-23T07:47:30.020Z,1452.00
2023-05-23T07:48:29.943Z,1420.00
2023-05-23T07:49:29.940Z,1427.00
2023-05-23T07:50:29.925Z,1476.00
2023-05-23T07:51:29.937Z,1421.00
2023-05-23T07:52:29.866Z,1385.00
2023-05-23T07:53:29.864Z,1291.00
2023-05-23T07:54:29.901Z,1339.00
2023-05-23T07:55:29.861Z,1333.00
2023-05-23T07:56:29.885Z,1307.00
2023-05-23T07:57:29.822Z,1325.00
2023-05-23T07:58:29.854Z,1384.00
2023-05-23T07:59:29.859Z,1384.00
2023-05-23T08:00:29.812Z,1329.00
2023-05-23T08:01:29.878Z,1279.00
2023-05-23T08:02:29.927Z,1306.00
2023-05-23T08:03:29.809Z,1360.00
2023-05-23T08:04:29.918Z,1327.00
2023-05-23T08:05:29.810Z,1240.00
2023-05-23T08:06:29.802Z,1216.00
2023-05-23T08:07:29.809Z,1194.00
2023-05-23T08:08:29.774Z,1240.00
2023-05-23T08:09:29.826Z,1242.00
2023-05-23T08:10:29.753Z,1206.00
2023-05-23T08:11:29.746Z,1119.00
2023-05-23T08:12:29.749Z,907.00
2023-05-23T08:13:29.737Z,895.00
2023-05-23T08:14:42.273Z,932.00
2023-05-23T08:15:30.816Z,935.00
2023-05-23T08:16:30.361Z,954.00
2023-05-23T08:17:29.775Z,1002.00
2023-05-23T08:18:29.843Z,1084.00
2023-05-23T08:19:29.772Z,1227.00
2023-05-23T08:20:29.705Z,1174.00
2023-05-23T08:21:29.685Z,1207.00
2023-05-23T08:22:29.696Z,1103.00
2023-05-23T08:23:29.751Z,1122.00
2023-05-23T08:24:29.716Z,1166.00
2023-05-23T08:25:29.676Z,1194.00
2023-05-23T08:26:29.650Z,1097.00
2023-05-23T08:27:29.692Z,1074.00
2023-05-23T08:28:29.741Z,956.00
2023-05-23T08:29:29.830Z,1008.00
2023-05-23T08:30:29.867Z,1057.00
2023-05-23T08:31:29.973Z,1108.00
2023-05-23T08:32:29.933Z,1059.00
2023-05-23T08:33:29.939Z,1012.00
2023-05-23T08:34:29.919Z,907.00
2023-05-23T08:35:40.851Z,867.00
2023-05-23T08:36:29.953Z,869.00
2023-05-23T08:37:29.987Z,871.00
2023-05-23T08:38:29.964Z,861.00
2023-05-23T08:39:29.870Z,914.00
2023-05-23T08:40:29.947Z,990.00
2023-05-23T08:41:29.950Z,1006.00
2023-05-23T08:42:29.970Z,958.00
2023-05-23T08:43:29.894Z,746.00
2023-05-23T08:44:29.910Z,774.00
2023-05-23T08:45:29.910Z,826.00
2023-05-23T08:46:30.029Z,783.00
2023-05-23T08:47:30.020Z,825.00
2023-05-23T08:48:29.999Z,774.00
2023-05-23T08:49:30.074Z,858.00
2023-05-23T08:50:30.010Z,868.00
2023-05-23T08:51:30.035Z,842.00
2023-05-23T08:52:30.155Z,748.00
2023-05-23T08:53:30.093Z,811.00
2023-05-23T08:54:30.118Z,850.00
2023-05-23T08:55:30.070Z,835.00
2023-05-23T08:56:30.193Z,833.00
2023-05-23T08:57:30.166Z,763.00
2023-05-23T08:58:30.185Z,792.00
2023-05-23T08:59:30.199Z,656.00
2023-05-23T09:00:30.175Z,739.00
2023-05-23T09:01:30.223Z,728.00
2023-05-23T09:02:30.253Z,738.00
2023-05-23T09:03:30.249Z,653.00
2023-05-23T09:04:30.306Z,633.00
2023-05-23T09:05:30.403Z,664.00
2023-05-23T09:06:30.310Z,632.00
2023-05-23T09:07:30.336Z,626.00
2023-05-23T09:08:30.339Z,740.00
2023-05-23T09:09:30.497Z,673.00
2023-05-23T09:10:30.502Z,635.00
2023-05-23T09:11:30.345Z,578.00
2023-05-23T09:12:30.404Z,623.00
2023-05-23T09:13:30.415Z,613.00
2023-05-23T09:14:30.530Z,584.00
2023-05-23T09:15:38.107Z,655.00
2023-05-23T09:16:30.521Z,656.00
2023-05-23T09:17:32.447Z,640.00
2023-05-23T09:18:30.458Z,481.00
2023-05-23T09:19:30.512Z,480.00
2023-05-23T09:20:30.465Z,506.00
2023-05-23T09:21:30.730Z,525.00
2023-05-23T09:22:30.462Z,548.00
2023-05-23T09:23:30.553Z,571.00
2023-05-23T09:24:30.420Z,566.00
2023-05-23T09:25:30.418Z,567.00
2023-05-23T09:26:30.453Z,654.00
2023-05-23T09:27:30.400Z,632.00
2023-05-23T09:28:30.440Z,640.00
2023-05-23T09:29:30.480Z,657.00
2023-05-23T09:30:30.514Z,655.00
2023-05-23T09:31:30.522Z,627.00
2023-05-23T09:32:30.578Z,604.00
2023-05-23T09:33:30.594Z,580.00
2023-05-23T09:34:30.617Z,597.00
2023-05-23T09:35:30.682Z,621.00
2023-05-23T09:36:30.711Z,574.00
2023-05-23T09:37:30.732Z,602.00
2023-05-23T09:38:30.753Z,656.00
2023-05-23T09:39:31.490Z,647.00
2023-05-23T09:40:31.019Z,707.00
2023-05-23T09:41:30.840Z,717.00
2023-05-23T09:42:30.856Z,607.00
2023-05-23T09:43:30.922Z,615.00
2023-05-23T09:44:30.968Z,626.00
2023-05-23T09:45:31.092Z,680.00
2023-05-23T09:46:31.121Z,659.00
2023-05-23T09:47:31.114Z,674.00
2023-05-23T09:48:31.114Z,666.00
2023-05-23T09:49:31.141Z,877.00
2023-05-23T09:50:31.104Z,957.00
2023-05-23T09:51:31.144Z,876.00
2023-05-23T09:52:31.192Z,1064.00
2023-05-23T09:53:31.241Z,1145.00
2023-05-23T09:54:31.273Z,1196.00
2023-05-23T09:55:31.377Z,1087.00
2023-05-23T09:56:31.321Z,876.00
2023-05-23T09:57:31.370Z,692.00
2023-05-23T09:58:31.400Z,528.00
2023-05-23T09:59:31.455Z,634.00
2023-05-23T10:00:31.458Z,631.00
2023-05-23T10:01:31.565Z,440.00
2023-05-23T10:02:31.596Z,490.00
2023-05-23T10:03:31.612Z,622.00
2023-05-23T10:04:31.653Z,702.00
2023-05-23T10:05:31.641Z,590.00
2023-05-23T10:06:31.705Z,653.00
2023-05-23T10:07:31.688Z,664.00
2023-05-23T10:08:31.782Z,686.00
2023-05-23T10:09:31.762Z,614.00
2023-05-23T10:10:31.776Z,804.00
2023-05-23T10:11:31.780Z,553.00
2023-05-23T10:12:31.834Z,583.00
2023-05-23T10:13:31.898Z,665.00
2023-05-23T10:14:31.890Z,617.00
2023-05-23T10:15:31.915Z,568.00
2023-05-23T10:16:32.027Z,600.00
2023-05-23T10:17:32.128Z,596.00
2023-05-23T10:18:32.082Z,626.00
2023-05-23T10:19:32.277Z,660.00
2023-05-23T10:20:32.118Z,525.00
2023-05-23T10:21:32.204Z,666.00
2023-05-23T10:22:32.191Z,698.00
2023-05-23T10:23:32.191Z,667.00
2023-05-23T10:24:39.861Z,521.00
2023-05-23T10:25:32.219Z,518.00
2023-05-23T10:26:32.273Z,492.00
2023-05-23T10:27:32.222Z,400.00
2023-05-23T10:28:32.263Z,400.00
2023-05-23T10:29:32.209Z,400.00
2023-05-23T10:30:32.157Z,400.00
2023-05-23T10:31:32.210Z,400.00
2023-05-23T10:32:32.232Z,400.00
2023-05-23T10:33:32.152Z,400.00
2023-05-23T10:34:32.208Z,400.00
2023-05-23T10:35:32.324Z,400.00
2023-05-23T10:36:32.166Z,400.00
2023-05-23T10:37:32.134Z,400.00
2023-05-23T10:38:32.144Z,400.00
2023-05-23T10:39:32.169Z,400.00
2023-05-23T10:40:32.169Z,465.00
2023-05-23T10:41:32.201Z,464.00
2023-05-23T10:42:32.165Z,571.00
2023-05-23T10:43:32.266Z,424.00
2023-05-23T10:44:32.112Z,401.00
2023-05-23T10:45:32.906Z,400.00
2023-05-23T10:46:32.302Z,400.00
2023-05-23T10:47:33.253Z,500.00
2023-05-23T10:48:34.571Z,503.00
2023-05-23T10:49:32.334Z,466.00
2023-05-23T10:50:32.337Z,596.00
2023-05-23T10:51:32.367Z,637.00
2023-05-23T10:52:32.448Z,432.00
2023-05-23T10:53:32.476Z,436.00
2023-05-23T10:54:32.497Z,400.00
2023-05-23T10:55:32.595Z,400.00
2023-05-23T10:56:32.595Z,455.00
2023-05-23T10:57:32.653Z,473.00
2023-05-23T10:58:32.613Z,473.00
2023-05-23T10:59:32.632Z,613.00
2023-05-23T11:00:32.723Z,553.00
2023-05-23T11:01:32.786Z,502.00
2023-05-23T11:02:32.805Z,496.00
2023-05-23T11:03:32.891Z,439.00
2023-05-23T11:04:32.870Z,600.00
2023-05-23T11:05:40.457Z,564.00
2023-05-23T11:06:32.945Z,565.00
2023-05-23T11:07:32.907Z,565.00
2023-05-23T11:08:46.972Z,605.00
2023-05-23T11:09:33.886Z,566.00
2023-05-23T11:10:32.824Z,573.00
2023-05-23T11:11:32.864Z,603.00
2023-05-23T11:12:32.793Z,608.00
2023-05-23T11:13:32.880Z,637.00
2023-05-23T11:14:32.805Z,1076.00
2023-05-23T11:15:32.871Z,775.00
2023-05-23T11:16:32.859Z,611.00
2023-05-23T11:17:32.816Z,561.00
2023-05-23T11:18:32.755Z,556.00
2023-05-23T11:19:32.794Z,661.00
2023-05-23T11:20:32.777Z,609.00
2023-05-23T11:21:32.792Z,594.00
2023-05-23T11:22:32.858Z,522.00
2023-05-23T11:23:32.857Z,592.00
2023-05-23T11:24:32.998Z,592.00
2023-05-23T11:25:32.910Z,589.00
2023-05-23T11:26:32.987Z,548.00
2023-05-23T11:27:32.968Z,1034.00
2023-05-23T11:28:33.128Z,1300.00
2023-05-23T11:29:33.082Z,1227.00
2023-05-23T11:30:33.416Z,1347.00
2023-05-23T11:31:33.089Z,1433.00
2023-05-23T11:32:33.215Z,1836.00
2023-05-23T11:33:33.142Z,1377.00
2023-05-23T11:34:33.198Z,1432.00
2023-05-23T11:35:33.170Z,1485.00
2023-05-23T11:36:33.209Z,1394.00
2023-05-23T11:37:33.209Z,1441.00
2023-05-23T11:38:33.256Z,1597.00
2023-05-23T11:39:33.336Z,1781.00
2023-05-23T11:40:33.328Z,1745.00
2023-05-23T11:41:33.375Z,1937.00
2023-05-23T11:42:33.400Z,1811.00
2023-05-23T11:43:33.443Z,1852.00
2023-05-23T11:44:33.483Z,1767.00
2023-05-23T11:45:33.718Z,1909.00
2023-05-23T11:46:33.787Z,1885.00
2023-05-23T11:47:33.624Z,1729.00
2023-05-23T11:48:33.581Z,1587.00
2023-05-23T11:49:33.625Z,1709.00
2023-05-23T11:50:33.665Z,1690.00
2023-05-23T11:51:33.685Z,1618.00
2023-05-23T11:52:33.716Z,1499.00
2023-05-23T11:53:33.746Z,1319.00
2023-05-23T11:54:33.778Z,1222.00
2023-05-23T11:55:33.856Z,1437.00
2023-05-23T11:56:33.846Z,1297.00
2023-05-23T11:57:33.865Z,1494.00
2023-05-23T11:58:33.888Z,1276.00
2023-05-23T11:59:33.910Z,1250.00
2023-05-23T12:00:34.004Z,1374.00
2023-05-23T12:01:34.083Z,1433.00
2023-05-23T12:02:34.131Z,1428.00
2023-05-23T12:03:34.249Z,1644.00
2023-05-23T12:04:34.163Z,1344.00
2023-05-23T12:05:34.171Z,1595.00
2023-05-23T12:06:34.173Z,1204.00
2023-05-23T12:07:34.205Z,884.00
2023-05-23T12:08:34.228Z,761.00
2023-05-23T12:09:34.272Z,925.00
2023-05-23T12:10:34.305Z,1061.00
2023-05-23T12:11:34.314Z,1207.00
2023-05-23T12:12:34.361Z,1216.00
2023-05-23T12:13:34.429Z,1142.00